createdAt,value
2018-08-11T00:00:06.218Z,42.47
2018-08-11T00:00:38.289Z,42.59
2018-08-11T00:01:10.343Z,42.49
2018-08-11T00:01:42.495Z,42.47
2018-08-11T00:02:14.714Z,42.49
2018-08-11T00:02:46.830Z,42.49
2018-08-11T00:03:19.031Z,42.4
2018-08-11T00:03:51.102Z,42.59
2018-08-11T00:04:23.138Z,42.49
2018-08-11T00:04:55.190Z,42.49
2018-08-11T00:05:28.052Z,42.57
2018-08-11T00:06:00.100Z,42.49
2018-08-11T00:06:32.142Z,42.59
2018-08-11T00:07:04.311Z,42.68
2018-08-11T00:07:36.395Z,42.4
2018-08-11T00:08:08.446Z,42.4
2018-08-11T00:08:40.471Z,42.57
2018-08-11T00:09:12.574Z,42.57
2018-08-11T00:09:44.583Z,42.66
2018-08-11T00:10:16.653Z,42.49
2018-08-11T00:10:48.667Z,42.49
2018-08-11T00:11:20.715Z,42.66
2018-08-11T00:11:52.751Z,42.57
2018-08-11T00:12:24.808Z,42.49
2018-08-11T00:12:56.878Z,42.68
2018-08-11T00:13:28.941Z,42.49
2018-08-11T00:14:01.001Z,42.78
2018-08-11T00:14:33.149Z,42.59
2018-08-11T00:15:05.336Z,42.68
2018-08-11T00:15:37.441Z,42.66
2018-08-11T00:16:09.502Z,42.47
2018-08-11T00:16:41.612Z,42.49
2018-08-11T00:17:13.671Z,42.57
2018-08-11T00:17:45.735Z,42.57
2018-08-11T00:18:17.765Z,42.57
2018-08-11T00:18:49.819Z,42.59
2018-08-11T00:19:21.819Z,42.59
2018-08-11T00:19:53.917Z,42.47
2018-08-11T00:20:25.954Z,42.68
2018-08-11T00:20:58.003Z,42.68
2018-08-11T00:21:30.030Z,42.68
2018-08-11T00:22:02.151Z,42.59
2018-08-11T00:22:34.291Z,42.57
2018-08-11T00:23:06.834Z,42.57
2018-08-11T00:23:38.910Z,42.68
2018-08-11T00:24:10.952Z,42.57
2018-08-11T00:24:42.993Z,42.66
2018-08-11T00:25:15.013Z,42.57
2018-08-11T00:25:47.095Z,42.57
2018-08-11T00:26:19.210Z,42.68
2018-08-11T00:26:51.231Z,42.66
2018-08-11T00:27:23.218Z,42.49
2018-08-11T00:27:55.273Z,42.68
2018-08-11T00:28:27.368Z,42.57
2018-08-11T00:28:59.412Z,42.66
2018-08-11T00:29:31.435Z,42.57
2018-08-11T00:30:03.533Z,42.66
2018-08-11T00:30:35.566Z,42.66
2018-08-11T00:31:07.589Z,42.57
2018-08-11T00:31:39.621Z,42.76
2018-08-11T00:32:11.699Z,42.66
2018-08-11T00:32:43.828Z,42.66
2018-08-11T00:33:15.888Z,42.66
2018-08-11T00:33:47.937Z,42.66
2018-08-11T00:34:19.943Z,42.66
2018-08-11T00:34:51.984Z,42.76
2018-08-11T00:35:24.022Z,42.66
2018-08-11T00:35:56.087Z,42.76
2018-08-11T00:36:28.192Z,42.66
2018-08-11T00:37:00.317Z,42.76
2018-08-11T00:37:32.369Z,42.66
2018-08-11T00:38:04.421Z,42.76
2018-08-11T00:38:36.455Z,42.57
2018-08-11T00:39:08.497Z,42.76
2018-08-11T00:39:40.540Z,42.66
2018-08-11T00:40:12.566Z,42.57
2018-08-11T00:40:44.630Z,42.76
2018-08-11T00:41:16.721Z,42.57
2018-08-11T00:41:48.795Z,42.57
2018-08-11T00:42:20.846Z,42.66
2018-08-11T00:42:52.994Z,42.76
2018-08-11T00:43:25.022Z,42.76
2018-08-11T00:43:57.056Z,42.57
2018-08-11T00:44:29.133Z,42.76
2018-08-11T00:45:01.207Z,42.66
2018-08-11T00:45:33.248Z,42.66
2018-08-11T00:46:05.292Z,42.66
2018-08-11T00:46:37.367Z,42.76
2018-08-11T00:47:09.406Z,42.76
2018-08-11T00:47:41.507Z,42.76
2018-08-11T00:48:13.559Z,42.66
2018-08-11T00:48:45.586Z,42.66
2018-08-11T00:49:17.764Z,42.66
2018-08-11T00:49:49.890Z,42.76
2018-08-11T00:50:21.919Z,42.66
2018-08-11T00:50:53.995Z,42.76
2018-08-11T00:51:26.064Z,42.76
2018-08-11T00:51:58.139Z,42.66
2018-08-11T00:52:30.257Z,42.76
2018-08-11T00:53:02.389Z,42.66
2018-08-11T00:53:34.452Z,42.57
2018-08-11T00:54:06.509Z,42.86
2018-08-11T00:54:38.550Z,42.76
2018-08-11T00:55:10.655Z,42.76
2018-08-11T00:55:42.719Z,42.57
2018-08-11T00:56:14.733Z,42.66
2018-08-11T00:56:46.831Z,42.66
2018-08-11T00:57:18.897Z,42.76
2018-08-11T00:57:51.757Z,42.86
2018-08-11T00:58:23.782Z,42.57
2018-08-11T00:58:55.834Z,42.86
2018-08-11T00:59:27.870Z,42.86
2018-08-11T00:59:59.920Z,42.76
2018-08-11T01:00:31.973Z,42.86
2018-08-11T01:01:04.020Z,42.86
2018-08-11T01:01:36.095Z,42.86
2018-08-11T01:02:08.208Z,42.86
2018-08-11T01:02:40.270Z,42.76
2018-08-11T01:03:12.276Z,42.86
2018-08-11T01:03:44.342Z,42.86
2018-08-11T01:04:16.393Z,42.66
2018-08-11T01:04:48.463Z,42.96
2018-08-11T01:05:20.530Z,42.76
2018-08-11T01:05:52.597Z,42.76
2018-08-11T01:06:24.716Z,42.86
2018-08-11T01:06:56.753Z,42.86
2018-08-11T01:07:28.820Z,42.86
2018-08-11T01:08:00.891Z,42.96
2018-08-11T01:08:33.018Z,42.86
2018-08-11T01:09:05.055Z,42.86
2018-08-11T01:09:37.115Z,42.86
2018-08-11T01:10:09.163Z,42.86
2018-08-11T01:10:41.219Z,42.86
2018-08-11T01:11:13.431Z,42.86
2018-08-11T01:11:45.443Z,42.76
2018-08-11T01:12:17.559Z,42.86
2018-08-11T01:12:49.630Z,42.96
2018-08-11T01:13:21.706Z,42.86
2018-08-11T01:13:53.778Z,42.86
2018-08-11T01:14:25.872Z,42.86
2018-08-11T01:14:57.950Z,42.96
2018-08-11T01:15:30.024Z,42.96
2018-08-11T01:16:02.033Z,42.76
2018-08-11T01:16:34.061Z,42.86
2018-08-11T01:17:06.077Z,42.86
2018-08-11T01:17:38.146Z,42.86
2018-08-11T01:18:10.323Z,42.86
2018-08-11T01:18:42.437Z,42.96
2018-08-11T01:19:14.498Z,42.96
2018-08-11T01:19:46.531Z,42.86
2018-08-11T01:20:18.585Z,42.96
2018-08-11T01:20:50.766Z,42.86
2018-08-11T01:21:22.808Z,42.96
2018-08-11T01:21:54.883Z,42.96
2018-08-11T01:22:26.925Z,42.86
2018-08-11T01:22:58.957Z,42.86
2018-08-11T01:23:31.159Z,42.86
2018-08-11T01:24:03.225Z,42.86
2018-08-11T01:24:35.248Z,42.86
2018-08-11T01:25:07.309Z,42.96
2018-08-11T01:25:39.352Z,42.96
2018-08-11T01:26:11.388Z,42.86
2018-08-11T01:26:43.539Z,42.86
2018-08-11T01:27:15.578Z,43.05
2018-08-11T01:27:47.615Z,43.05
2018-08-11T01:28:19.646Z,42.96
2018-08-11T01:28:51.659Z,42.96
2018-08-11T01:29:23.689Z,43.05
2018-08-11T01:29:55.694Z,43.05
2018-08-11T01:30:27.726Z,42.96
2018-08-11T01:31:00.525Z,42.96
2018-08-11T01:31:32.565Z,42.96
2018-08-11T01:32:04.648Z,43.15
2018-08-11T01:32:36.698Z,43.15
2018-08-11T01:33:08.722Z,42.96
2018-08-11T01:33:40.778Z,43.05
2018-08-11T01:34:13.798Z,42.96
2018-08-11T01:34:45.864Z,43.24
2018-08-11T01:35:17.934Z,43.05
2018-08-11T01:35:49.991Z,43.05
2018-08-11T01:36:22.041Z,43.15
2018-08-11T01:36:54.087Z,43.15
2018-08-11T01:37:26.161Z,43.24
2018-08-11T01:37:58.236Z,43.24
2018-08-11T01:38:30.312Z,43.24
2018-08-11T01:39:02.344Z,42.66
2018-08-11T01:39:34.389Z,42.96
2018-08-11T01:40:06.431Z,43.05
2018-08-11T01:40:38.469Z,43.05
2018-08-11T01:41:10.541Z,43.05
2018-08-11T01:41:42.615Z,43.15
2018-08-11T01:42:14.663Z,42.96
2018-08-11T01:42:46.728Z,42.96
2018-08-11T01:43:18.733Z,42.96
2018-08-11T01:43:50.820Z,42.76
2018-08-11T01:44:23.028Z,42.76
2018-08-11T01:44:54.981Z,42.76
2018-08-11T01:45:27.030Z,43.15
2018-08-11T01:45:59.726Z,42.76
2018-08-11T01:46:31.773Z,42.76
2018-08-11T01:47:03.832Z,42.86
2018-08-11T01:47:35.858Z,43.24
2018-08-11T01:48:07.915Z,42.76
2018-08-11T01:48:39.973Z,42.76
2018-08-11T01:49:12.061Z,43.15
2018-08-11T01:49:44.099Z,42.86
2018-08-11T01:50:16.161Z,42.76
2018-08-11T01:50:48.246Z,42.86
2018-08-11T01:51:20.449Z,43.34
2018-08-11T01:51:52.665Z,42.86
2018-08-11T01:52:24.732Z,42.76
2018-08-11T01:52:56.741Z,43.15
2018-08-11T01:53:28.829Z,43.34
2018-08-11T01:54:01.010Z,42.76
2018-08-11T01:54:33.089Z,43.05
2018-08-11T01:55:05.176Z,43.15
2018-08-11T01:55:37.209Z,43.15
2018-08-11T01:56:09.266Z,43.05
2018-08-11T01:56:41.339Z,43.05
2018-08-11T01:57:13.511Z,43.05
2018-08-11T01:57:46.129Z,43.05
2018-08-11T01:58:18.099Z,42.96
2018-08-11T01:58:50.149Z,43.05
2018-08-11T01:59:22.227Z,42.86
2018-08-11T01:59:54.373Z,43.15
2018-08-11T02:00:26.402Z,42.96
2018-08-11T02:00:58.527Z,43.05
2018-08-11T02:01:30.589Z,43.05
2018-08-11T02:02:02.738Z,43.05
2018-08-11T02:02:34.789Z,43.05
2018-08-11T02:03:06.936Z,43.05
2018-08-11T02:03:38.999Z,43.05
2018-08-11T02:04:11.040Z,42.96
2018-08-11T02:04:43.104Z,42.96
2018-08-11T02:05:15.172Z,43.15
2018-08-11T02:05:47.244Z,43.05
2018-08-11T02:06:19.279Z,43.05
2018-08-11T02:06:51.352Z,42.96
2018-08-11T02:07:23.399Z,42.86
2018-08-11T02:07:55.468Z,43.15
2018-08-11T02:08:27.514Z,43.05
2018-08-11T02:08:59.591Z,43.05
2018-08-11T02:09:31.618Z,43.15
2018-08-11T02:10:03.651Z,43.05
2018-08-11T02:10:35.727Z,43.15
2018-08-11T02:11:07.858Z,43.05
2018-08-11T02:11:40.040Z,43.24
2018-08-11T02:12:12.195Z,43.24
2018-08-11T02:12:44.345Z,43.24
2018-08-11T02:13:16.544Z,43.05
2018-08-11T02:13:48.622Z,43.05
2018-08-11T02:14:20.677Z,43.05
2018-08-11T02:14:52.730Z,43.24
2018-08-11T02:15:24.769Z,43.05
2018-08-11T02:15:56.830Z,43.05
2018-08-11T02:16:28.895Z,43.05
2018-08-11T02:17:00.953Z,43.15
2018-08-11T02:17:33.025Z,43.05
2018-08-11T02:18:05.056Z,43.15
2018-08-11T02:18:37.116Z,42.96
2018-08-11T02:19:09.175Z,42.96
2018-08-11T02:19:41.230Z,43.05
2018-08-11T02:20:13.281Z,43.24
2018-08-11T02:20:45.357Z,43.15
2018-08-11T02:21:17.387Z,43.15
2018-08-11T02:21:49.411Z,43.15
2018-08-11T02:22:21.480Z,43.24
2018-08-11T02:22:53.539Z,43.15
2018-08-11T02:23:25.588Z,43.15
2018-08-11T02:23:57.609Z,43.24
2018-08-11T02:24:29.671Z,43.15
2018-08-11T02:25:01.746Z,43.05
2018-08-11T02:25:34.565Z,43.15
2018-08-11T02:26:06.615Z,43.34
2018-08-11T02:26:38.765Z,43.24
2018-08-11T02:27:10.829Z,43.24
2018-08-11T02:27:42.885Z,43.15
2018-08-11T02:28:14.956Z,43.05
2018-08-11T02:28:47.021Z,43.15
2018-08-11T02:29:19.104Z,43.15
2018-08-11T02:29:51.168Z,43.24
2018-08-11T02:30:23.256Z,43.24
2018-08-11T02:30:55.336Z,43.34
2018-08-11T02:31:27.389Z,43.24
2018-08-11T02:31:59.445Z,43.24
2018-08-11T02:32:31.510Z,43.15
2018-08-11T02:33:03.667Z,43.15
2018-08-11T02:33:35.753Z,43.24
2018-08-11T02:34:07.863Z,43.24
2018-08-11T02:34:40.088Z,43.15
2018-08-11T02:35:12.225Z,43.54
2018-08-11T02:35:44.390Z,43.44
2018-08-11T02:36:16.444Z,43.34
2018-08-11T02:36:48.516Z,43.54
2018-08-11T02:37:20.582Z,43.54
2018-08-11T02:37:52.705Z,43.63
2018-08-11T02:38:24.753Z,43.24
2018-08-11T02:38:56.807Z,43.44
2018-08-11T02:39:28.872Z,43.73
2018-08-11T02:40:01.074Z,43.44
2018-08-11T02:40:33.128Z,43.54
2018-08-11T02:41:05.159Z,43.63
2018-08-11T02:41:37.223Z,43.44
2018-08-11T02:42:09.300Z,43.63
2018-08-11T02:42:41.480Z,43.63
2018-08-11T02:43:13.604Z,43.63
2018-08-11T02:43:45.688Z,43.24
2018-08-11T02:44:17.744Z,43.24
2018-08-11T02:44:49.800Z,43.63
2018-08-11T02:45:21.842Z,43.44
2018-08-11T02:45:53.977Z,43.34
2018-08-11T02:46:26.020Z,43.54
2018-08-11T02:46:58.094Z,43.44
2018-08-11T02:47:30.154Z,43.73
2018-08-11T02:48:02.344Z,43.34
2018-08-11T02:48:34.401Z,43.34
2018-08-11T02:49:06.462Z,43.82
2018-08-11T02:49:38.495Z,43.24
2018-08-11T02:50:10.568Z,43.34
2018-08-11T02:50:42.659Z,43.54
2018-08-11T02:51:14.893Z,43.44
2018-08-11T02:51:47.082Z,43.44
2018-08-11T02:52:19.110Z,43.34
2018-08-11T02:52:51.181Z,43.54
2018-08-11T02:53:23.233Z,43.54
2018-08-11T02:53:55.312Z,43.34
2018-08-11T02:54:27.388Z,43.51
2018-08-11T02:54:59.443Z,43.41
2018-08-11T02:55:31.535Z,43.41
2018-08-11T02:56:03.713Z,43.51
2018-08-11T02:56:35.777Z,43.44
2018-08-11T02:57:07.863Z,43.44
2018-08-11T02:57:39.944Z,43.51
2018-08-11T02:58:12.002Z,43.54
2018-08-11T02:58:44.109Z,43.44
2018-08-11T02:59:16.249Z,43.51
2018-08-11T02:59:48.324Z,43.44
2018-08-11T03:00:20.350Z,43.41
2018-08-11T03:00:52.431Z,43.44
2018-08-11T03:01:24.525Z,43.51
2018-08-11T03:01:56.671Z,43.61
2018-08-11T03:02:28.860Z,43.32
2018-08-11T03:03:01.089Z,43.71
2018-08-11T03:03:33.170Z,43.32
2018-08-11T03:04:05.241Z,43.71
2018-08-11T03:04:37.275Z,43.82
2018-08-11T03:05:09.313Z,43.41
2018-08-11T03:05:41.432Z,43.41
2018-08-11T03:06:13.509Z,43.32
2018-08-11T03:06:45.543Z,43.63
2018-08-11T03:07:17.660Z,43.71
2018-08-11T03:07:49.727Z,43.32
2018-08-11T03:08:21.864Z,43.71
2018-08-11T03:08:53.919Z,43.71
2018-08-11T03:09:26.004Z,43.8
2018-08-11T03:09:58.076Z,43.8
2018-08-11T03:10:30.165Z,43.8
2018-08-11T03:11:02.182Z,43.51
2018-08-11T03:11:34.223Z,43.63
2018-08-11T03:12:06.306Z,43.54
2018-08-11T03:12:38.404Z,43.51
2018-08-11T03:13:10.467Z,43.61
2018-08-11T03:13:42.524Z,43.8
2018-08-11T03:14:14.601Z,43.71
2018-08-11T03:14:46.673Z,43.9
2018-08-11T03:15:18.724Z,43.71
2018-08-11T03:15:50.765Z,43.8
2018-08-11T03:16:22.840Z,43.9
2018-08-11T03:16:55.774Z,43.8
2018-08-11T03:17:27.850Z,43.51
2018-08-11T03:17:59.946Z,43.8
2018-08-11T03:18:32.654Z,44.09
2018-08-11T03:19:04.685Z,44.19
2018-08-11T03:19:36.743Z,43.99
2018-08-11T03:20:08.872Z,44.19
2018-08-11T03:20:40.950Z,43.9
2018-08-11T03:21:13.002Z,44.02
2018-08-11T03:21:45.074Z,43.9
2018-08-11T03:22:17.146Z,43.82
2018-08-11T03:22:49.219Z,43.8
2018-08-11T03:23:21.308Z,43.9
2018-08-11T03:23:53.403Z,43.9
2018-08-11T03:24:25.476Z,43.71
2018-08-11T03:24:57.554Z,43.8
2018-08-11T03:25:29.632Z,43.8
2018-08-11T03:26:01.705Z,43.99
2018-08-11T03:26:33.739Z,43.8
2018-08-11T03:27:05.903Z,43.9
2018-08-11T03:27:37.957Z,43.9
2018-08-11T03:28:10.029Z,43.8
2018-08-11T03:28:42.061Z,43.8
2018-08-11T03:29:14.138Z,43.9
2018-08-11T03:29:47.098Z,43.8
2018-08-11T03:30:19.124Z,43.82
2018-08-11T03:30:51.257Z,43.8
2018-08-11T03:31:23.371Z,43.9
2018-08-11T03:31:55.459Z,43.8
2018-08-11T03:32:27.544Z,43.71
2018-08-11T03:32:59.665Z,43.8
2018-08-11T03:33:31.669Z,43.8
2018-08-11T03:34:03.704Z,43.99
2018-08-11T03:34:35.755Z,43.71
2018-08-11T03:35:07.832Z,43.9
2018-08-11T03:35:40.679Z,44.19
2018-08-11T03:36:12.737Z,44.09
2018-08-11T03:36:44.780Z,43.71
2018-08-11T03:37:16.876Z,43.99
2018-08-11T03:37:48.907Z,44.09
2018-08-11T03:38:20.947Z,44.09
2018-08-11T03:38:52.990Z,44.09
2018-08-11T03:39:25.048Z,43.9
2018-08-11T03:39:57.119Z,44.19
2018-08-11T03:40:29.148Z,44.19
2018-08-11T03:41:01.176Z,43.99
2018-08-11T03:41:33.266Z,44.19
2018-08-11T03:42:05.316Z,43.9
2018-08-11T03:42:37.461Z,43.9
2018-08-11T03:43:09.593Z,43.9
2018-08-11T03:43:41.606Z,44.19
2018-08-11T03:44:13.686Z,44.29
2018-08-11T03:44:45.743Z,44.29
2018-08-11T03:45:17.833Z,44.29
2018-08-11T03:45:49.904Z,44.38
2018-08-11T03:46:21.930Z,44.38
2018-08-11T03:46:53.993Z,44.29
2018-08-11T03:47:26.079Z,44.19
2018-08-11T03:47:58.183Z,44.29
2018-08-11T03:48:30.229Z,44.29
2018-08-11T03:49:02.301Z,44.29
2018-08-11T03:49:34.368Z,44.19
2018-08-11T03:50:06.459Z,44.09
2018-08-11T03:50:38.607Z,44.09
2018-08-11T03:51:10.670Z,44.29
2018-08-11T03:51:42.749Z,44.29
2018-08-11T03:52:14.778Z,44.29
2018-08-11T03:52:46.859Z,44.09
2018-08-11T03:53:18.925Z,44.09
2018-08-11T03:53:50.966Z,44.38
2018-08-11T03:54:23.087Z,44.19
2018-08-11T03:54:55.131Z,44.29
2018-08-11T03:55:27.887Z,44.19
2018-08-11T03:56:00.086Z,44.19
2018-08-11T03:56:32.220Z,44.29
2018-08-11T03:57:04.291Z,44.29
2018-08-11T03:57:36.413Z,44.19
2018-08-11T03:58:08.477Z,44.19
2018-08-11T03:58:40.480Z,44.48
2018-08-11T03:59:12.628Z,44.19
2018-08-11T03:59:44.816Z,44.38
2018-08-11T04:00:16.866Z,44.19
2018-08-11T04:00:48.950Z,44.48
2018-08-11T04:01:20.999Z,44.38
2018-08-11T04:01:53.027Z,44.38
2018-08-11T04:02:25.081Z,44.19
2018-08-11T04:02:57.152Z,44.38
2018-08-11T04:03:29.236Z,44.29
2018-08-11T04:04:01.292Z,44.38
2018-08-11T04:04:33.407Z,44.38
2018-08-11T04:05:05.444Z,44.38
2018-08-11T04:05:37.482Z,44.38
2018-08-11T04:06:09.640Z,44.29
2018-08-11T04:06:41.828Z,44.38
2018-08-11T04:07:13.839Z,44.38
2018-08-11T04:07:45.903Z,44.38
2018-08-11T04:08:17.979Z,44.29
2018-08-11T04:08:50.050Z,44.38
2018-08-11T04:09:22.115Z,44.38
2018-08-11T04:09:54.189Z,44.48
2018-08-11T04:10:26.245Z,44.29
2018-08-11T04:10:58.242Z,44.38
2018-08-11T04:11:30.294Z,44.57
2018-08-11T04:12:02.298Z,44.29
2018-08-11T04:12:41.230Z,44.29
2018-08-11T04:13:13.316Z,44.38
2018-08-11T04:13:45.407Z,44.48
2018-08-11T04:14:17.492Z,44.38
2018-08-11T04:14:49.544Z,44.38
2018-08-11T04:15:21.607Z,44.38
2018-08-11T04:15:53.685Z,44.48
2018-08-11T04:16:25.750Z,44.19
2018-08-11T04:16:57.812Z,44.65
2018-08-11T04:17:29.863Z,44.67
2018-08-11T04:18:01.943Z,44.67
2018-08-11T04:18:34.009Z,44.65
2018-08-11T04:19:06.098Z,44.57
2018-08-11T04:19:38.281Z,44.56
2018-08-11T04:20:10.375Z,44.65
2018-08-11T04:20:42.548Z,44.65
2018-08-11T04:21:14.615Z,44.29
2018-08-11T04:21:46.695Z,44.57
2018-08-11T04:22:18.730Z,44.65
2018-08-11T04:22:50.802Z,44.65
2018-08-11T04:23:22.905Z,44.48
2018-08-11T04:23:55.019Z,44.57
2018-08-11T04:24:27.048Z,44.56
2018-08-11T04:24:59.110Z,44.46
2018-08-11T04:25:31.211Z,44.65
2018-08-11T04:26:03.225Z,44.67
2018-08-11T04:26:35.263Z,44.48
2018-08-11T04:27:07.360Z,44.57
2018-08-11T04:27:39.403Z,44.36
2018-08-11T04:28:11.465Z,44.75
2018-08-11T04:28:43.509Z,44.57
2018-08-11T04:29:15.579Z,44.75
2018-08-11T04:29:47.739Z,44.57
2018-08-11T04:30:19.890Z,44.77
2018-08-11T04:30:51.971Z,44.46
2018-08-11T04:31:23.992Z,44.56
2018-08-11T04:31:56.082Z,44.65
2018-08-11T04:32:28.139Z,44.84
2018-08-11T04:33:00.234Z,44.75
2018-08-11T04:33:32.326Z,44.46
2018-08-11T04:34:04.371Z,44.75
2018-08-11T04:34:36.431Z,44.57
2018-08-11T04:35:08.492Z,44.26
2018-08-11T04:35:40.560Z,44.75
2018-08-11T04:36:12.662Z,44.77
2018-08-11T04:36:44.744Z,44.56
2018-08-11T04:37:16.790Z,44.75
2018-08-11T04:37:48.874Z,44.07
2018-08-11T04:38:20.939Z,44.65
2018-08-11T04:38:52.967Z,44.17
2018-08-11T04:39:24.987Z,44.65
2018-08-11T04:39:57.029Z,44.75
2018-08-11T04:40:29.056Z,44.56
2018-08-11T04:41:01.116Z,44.56
2018-08-11T04:41:33.177Z,44.75
2018-08-11T04:42:05.259Z,44.56
2018-08-11T04:42:37.410Z,44.75
2018-08-11T04:43:09.485Z,44.36
2018-08-11T04:43:41.625Z,44.75
2018-08-11T04:44:13.798Z,44.84
2018-08-11T04:44:45.953Z,44.84
2018-08-11T04:45:17.981Z,44.75
2018-08-11T04:45:50.011Z,44.77
2018-08-11T04:46:22.057Z,44.84
2018-08-11T04:46:54.159Z,44.84
2018-08-11T04:47:27.095Z,44.84
2018-08-11T04:47:59.166Z,44.84
2018-08-11T04:48:31.217Z,44.75
2018-08-11T04:49:03.280Z,44.75
2018-08-11T04:49:35.344Z,44.38
2018-08-11T04:50:07.354Z,44.65
2018-08-11T04:50:39.426Z,44.84
2018-08-11T04:51:11.492Z,44.84
2018-08-11T04:51:43.550Z,44.75
2018-08-11T04:52:15.609Z,44.84
2018-08-11T04:52:48.267Z,44.75
2018-08-11T04:53:20.342Z,44.56
2018-08-11T04:53:52.358Z,44.75
2018-08-11T04:54:24.427Z,44.75
2018-08-11T04:54:56.546Z,44.46
2018-08-11T04:55:28.641Z,44.75
2018-08-11T04:56:00.669Z,44.56
2018-08-11T04:56:32.713Z,44.75
2018-08-11T04:57:04.798Z,44.75
2018-08-11T04:57:36.855Z,44.84
2018-08-11T04:58:09.023Z,44.65
2018-08-11T04:58:41.049Z,44.26
2018-08-11T04:59:13.093Z,44.75
2018-08-11T04:59:45.142Z,44.75
2018-08-11T05:00:17.157Z,44.65
2018-08-11T05:00:49.355Z,44.75
2018-08-11T05:01:21.400Z,44.65
2018-08-11T05:01:53.581Z,44.65
2018-08-11T05:02:25.604Z,44.75
2018-08-11T05:02:57.720Z,44.84
2018-08-11T05:03:29.796Z,44.75
2018-08-11T05:04:01.868Z,44.84
2018-08-11T05:04:33.907Z,44.75
2018-08-11T05:05:05.923Z,44.38
2018-08-11T05:05:37.993Z,44.87
2018-08-11T05:06:10.025Z,44.65
2018-08-11T05:06:42.065Z,44.65
2018-08-11T05:07:14.131Z,44.65
2018-08-11T05:07:46.214Z,44.77
2018-08-11T05:08:18.281Z,44.65
2018-08-11T05:08:50.540Z,44.67
2018-08-11T05:09:22.583Z,44.65
2018-08-11T05:09:54.658Z,44.65
2018-08-11T05:10:26.655Z,44.87
2018-08-11T05:10:58.736Z,44.84
2018-08-11T05:11:30.789Z,44.67
2018-08-11T05:12:02.888Z,44.67
2018-08-11T05:12:34.877Z,44.48
2018-08-11T05:13:06.948Z,44.26
2018-08-11T05:13:39.001Z,44.67
2018-08-11T05:14:11.066Z,44.67
2018-08-11T05:14:43.146Z,44.38
2018-08-11T05:15:15.263Z,44.67
2018-08-11T05:15:47.393Z,44.77
2018-08-11T05:16:19.432Z,44.67
2018-08-11T05:16:51.495Z,44.67
2018-08-11T05:17:23.545Z,44.48
2018-08-11T05:17:55.571Z,44.67
2018-08-11T05:18:27.601Z,44.48
2018-08-11T05:18:59.657Z,44.67
2018-08-11T05:19:31.705Z,44.77
2018-08-11T05:20:03.695Z,44.77
2018-08-11T05:20:35.780Z,44.77
2018-08-11T05:21:07.848Z,44.77
2018-08-11T05:21:39.923Z,44.87
2018-08-11T05:22:11.962Z,44.87
2018-08-11T05:22:43.978Z,44.77
2018-08-11T05:23:16.054Z,44.67
2018-08-11T05:23:48.147Z,44.67
2018-08-11T05:24:20.331Z,44.67
2018-08-11T05:24:52.459Z,44.38
2018-08-11T05:25:24.458Z,44.29
2018-08-11T05:25:56.466Z,44.67
2018-08-11T05:26:28.599Z,44.29
2018-08-11T05:27:00.599Z,44.77
2018-08-11T05:27:32.670Z,44.38
2018-08-11T05:28:04.739Z,44.77
2018-08-11T05:28:36.801Z,44.67
2018-08-11T05:29:08.907Z,44.87
2018-08-11T05:29:40.976Z,44.77
2018-08-11T05:30:13.026Z,44.77
2018-08-11T05:30:45.082Z,44.67
2018-08-11T05:31:17.221Z,44.38
2018-08-11T05:31:49.272Z,44.67
2018-08-11T05:32:21.318Z,44.77
2018-08-11T05:32:53.462Z,44.77
2018-08-11T05:33:25.630Z,44.38
2018-08-11T05:33:57.699Z,44.77
2018-08-11T05:34:29.734Z,44.29
2018-08-11T05:35:01.770Z,44.48
2018-08-11T05:35:33.832Z,44.77
2018-08-11T05:36:05.896Z,44.48
2018-08-11T05:36:37.962Z,44.38
2018-08-11T05:37:09.999Z,44.87
2018-08-11T05:37:42.080Z,44.77
2018-08-11T05:38:14.200Z,44.77
2018-08-11T05:38:46.240Z,44.77
2018-08-11T05:39:18.313Z,44.48
2018-08-11T05:39:50.341Z,44.38
2018-08-11T05:40:22.365Z,44.67
2018-08-11T05:40:54.413Z,44.48
2018-08-11T05:41:26.435Z,44.77
2018-08-11T05:41:58.523Z,44.87
2018-08-11T05:42:30.573Z,44.79
2018-08-11T05:43:02.667Z,44.98
2018-08-11T05:43:34.708Z,44.79
2018-08-11T05:44:06.840Z,44.5
2018-08-11T05:44:38.918Z,44.89
2018-08-11T05:45:10.990Z,44.89
2018-08-11T05:45:43.055Z,44.89
2018-08-11T05:46:15.197Z,44.6
2018-08-11T05:46:47.276Z,44.6
2018-08-11T05:47:19.295Z,44.79
2018-08-11T05:47:51.321Z,44.7
2018-08-11T05:48:23.340Z,44.7
2018-08-11T05:48:56.279Z,44.79
2018-08-11T05:49:28.314Z,44.7
2018-08-11T05:50:00.389Z,44.4
2018-08-11T05:50:32.529Z,44.31
2018-08-11T05:51:04.638Z,44.7
2018-08-11T05:51:36.655Z,44.7
2018-08-11T05:52:08.698Z,44.7
2018-08-11T05:52:40.808Z,44.79
2018-08-11T05:53:12.850Z,44.21
2018-08-11T05:53:44.918Z,44.79
2018-08-11T05:54:17.007Z,44.79
2018-08-11T05:54:49.066Z,44.79
2018-08-11T05:55:21.181Z,44.6
2018-08-11T05:55:53.229Z,44.79
2018-08-11T05:56:25.314Z,44.79
2018-08-11T05:56:57.353Z,44.33
2018-08-11T05:57:29.465Z,44.6
2018-08-11T05:58:01.461Z,44.81
2018-08-11T05:58:33.487Z,44.21
2018-08-11T05:59:05.644Z,44.81
2018-08-11T05:59:37.634Z,44.79
2018-08-11T06:00:09.657Z,44.6
2018-08-11T06:00:41.709Z,44.31
2018-08-11T06:01:13.759Z,44.62
2018-08-11T06:01:45.847Z,44.62
2018-08-11T06:02:17.891Z,44.43
2018-08-11T06:02:49.919Z,44.81
2018-08-11T06:03:21.959Z,44.7
2018-08-11T06:03:53.991Z,44.79
2018-08-11T06:04:26.086Z,44.91
2018-08-11T06:04:58.199Z,44.79
2018-08-11T06:05:30.280Z,44.91
2018-08-11T06:06:02.405Z,44.81
2018-08-11T06:06:34.408Z,44.4
2018-08-11T06:07:06.479Z,44.31
2018-08-11T06:07:38.475Z,44.81
2018-08-11T06:08:10.683Z,44.81
2018-08-11T06:08:42.748Z,44.79
2018-08-11T06:09:14.768Z,44.91
2018-08-11T06:09:46.791Z,44.4
2018-08-11T06:10:18.846Z,44.43
2018-08-11T06:10:50.893Z,44.81
2018-08-11T06:11:22.975Z,44.43
2018-08-11T06:11:55.034Z,44.72
2018-08-11T06:12:27.130Z,44.79
2018-08-11T06:12:59.132Z,44.7
2018-08-11T06:13:31.167Z,44.81
2018-08-11T06:14:03.173Z,44.79
2018-08-11T06:14:35.229Z,44.91
2018-08-11T06:15:07.310Z,44.89
2018-08-11T06:15:39.352Z,44.91
2018-08-11T06:16:11.437Z,44.53
2018-08-11T06:16:43.463Z,44.43
2018-08-11T06:17:15.492Z,44.33
2018-08-11T06:17:47.537Z,44.81
2018-08-11T06:18:19.614Z,44.72
2018-08-11T06:18:51.652Z,44.81
2018-08-11T06:19:23.619Z,44.72
2018-08-11T06:19:55.804Z,44.81
2018-08-11T06:20:27.948Z,44.81
2018-08-11T06:21:00.035Z,44.81
2018-08-11T06:21:32.045Z,44.91
2018-08-11T06:22:04.046Z,44.81
2018-08-11T06:22:36.112Z,44.91
2018-08-11T06:23:08.145Z,44.72
2018-08-11T06:23:40.199Z,44.72
2018-08-11T06:24:12.232Z,44.81
2018-08-11T06:24:44.305Z,44.53
2018-08-11T06:25:16.320Z,44.91
2018-08-11T06:25:48.374Z,44.81
2018-08-11T06:26:20.431Z,44.91
2018-08-11T06:26:52.487Z,44.72
2018-08-11T06:27:24.545Z,44.81
2018-08-11T06:27:56.614Z,44.72
2018-08-11T06:28:28.783Z,44.72
2018-08-11T06:29:00.812Z,44.81
2018-08-11T06:29:32.815Z,44.43
2018-08-11T06:30:04.891Z,44.72
2018-08-11T06:30:36.932Z,44.53
2018-08-11T06:31:08.952Z,44.81
2018-08-11T06:31:41.183Z,44.81
2018-08-11T06:32:13.325Z,44.93
2018-08-11T06:32:45.357Z,44.45
2018-08-11T06:33:17.397Z,44.84
2018-08-11T06:33:49.405Z,44.91
2018-08-11T06:34:21.490Z,44.64
2018-08-11T06:34:53.652Z,44.64
2018-08-11T06:35:25.686Z,44.74
2018-08-11T06:35:57.739Z,44.74
2018-08-11T06:36:29.780Z,44.84
2018-08-11T06:37:01.884Z,44.74
2018-08-11T06:37:34.043Z,44.74
2018-08-11T06:38:06.135Z,44.84
2018-08-11T06:38:38.135Z,44.93
2018-08-11T06:39:10.220Z,44.35
2018-08-11T06:39:42.305Z,44.84
2018-08-11T06:40:14.339Z,44.84
2018-08-11T06:40:46.501Z,44.84
2018-08-11T06:41:18.992Z,44.74
2018-08-11T06:41:51.062Z,44.93
2018-08-11T06:42:23.126Z,44.84
2018-08-11T06:42:55.184Z,44.64
2018-08-11T06:43:27.392Z,44.64
2018-08-11T06:43:59.457Z,44.96
2018-08-11T06:44:31.517Z,44.54
2018-08-11T06:45:03.540Z,44.76
2018-08-11T06:45:35.603Z,44.57
2018-08-11T06:46:07.672Z,44.67
2018-08-11T06:46:39.822Z,44.67
2018-08-11T06:47:12.020Z,44.76
2018-08-11T06:47:44.034Z,44.57
2018-08-11T06:48:16.112Z,44.67
2018-08-11T06:48:48.146Z,44.37
2018-08-11T06:49:20.172Z,44.67
2018-08-11T06:49:52.192Z,44.18
2018-08-11T06:50:24.283Z,44.18
2018-08-11T06:50:56.271Z,44.76
2018-08-11T06:51:28.270Z,44.76
2018-08-11T06:52:00.349Z,44.76
2018-08-11T06:52:32.374Z,44.47
2018-08-11T06:53:04.474Z,44.57
2018-08-11T06:53:36.551Z,44.49
2018-08-11T06:54:08.606Z,44.49